Time;durP1;ratioP1;P1;durP2;ratioP2;P2;SDS_P1;SDS_P2;PMS_P1;PMS_P2;Temp;Humidity;BMP_temperature;BMP_pressure;BME280_temperature;BME280_humidity;BME280_pressure;Samples;Min_cycle;Max_cycle;Signal;HPM_P1;HPM_P2
2021/10/15 00:00:35;;;;;;;1.02;0.63;;;22.60;43.70;;;;;;4994840;28;20480;-60
2021/10/15 00:03:01;;;;;;;1.20;0.60;;;22.60;43.80;;;;;;4994822;28;20763;-61
2021/10/15 00:05:28;;;;;;;0.90;0.60;;;22.60;43.60;;;;;;4994895;28;20390;-61
2021/10/15 00:07:54;;;;;;;1.35;0.80;;;22.60;43.40;;;;;;4994332;28;20394;-61
2021/10/15 00:10:19;;;;;;;1.10;0.50;;;22.60;43.60;;;;;;4994622;28;20468;-60
2021/10/15 00:12:45;;;;;;;1.00;0.50;;;22.60;43.50;;;;;;4994748;28;20426;-60
2021/10/15 00:15:11;;;;;;;0.90;0.60;;;22.60;43.70;;;;;;4976691;28;20391;-60
2021/10/15 00:17:37;;;;;;;1.02;0.60;;;22.60;43.70;;;;;;4976605;28;20417;-60
2021/10/15 00:20:04;;;;;;;1.17;0.70;;;22.60;43.60;;;;;;4993994;28;20393;-60
2021/10/15 00:22:30;;;;;;;1.40;0.70;;;22.60;43.50;;;;;;4994616;28;20398;-61
2021/10/15 00:24:56;;;;;;;1.17;0.50;;;22.60;43.70;;;;;;4994418;28;20406;-60
2021/10/15 00:27:21;;;;;;;1.80;0.50;;;22.60;43.50;;;;;;4994310;28;20434;-61
2021/10/15 00:29:47;;;;;;;1.43;0.60;;;22.60;43.30;;;;;;4993894;28;20463;-65
2021/10/15 00:32:12;;;;;;;1.02;0.60;;;22.60;43.60;;;;;;4994325;28;20410;-62
2021/10/15 00:34:39;;;;;;;1.40;0.57;;;22.60;43.40;;;;;;4994346;28;20394;-60
2021/10/15 00:37:05;;;;;;;1.00;0.60;;;22.60;43.40;;;;;;4994104;28;20398;-63
2021/10/15 00:39:31;;;;;;;1.00;0.60;;;22.60;43.40;;;;;;4994201;28;20391;-61
2021/10/15 00:41:56;;;;;;;1.60;0.60;;;22.60;43.50;;;;;;4993790;28;20415;-61
2021/10/15 00:44:22;;;;;;;0.90;0.60;;;22.60;43.50;;;;;;4993896;28;20414;-61
2021/10/15 00:46:48;;;;;;;1.40;0.60;;;22.60;43.50;;;;;;4994227;28;20402;-63
2021/10/15 00:49:15;;;;;;;0.93;0.57;;;22.60;43.40;;;;;;4993879;28;20394;-62
2021/10/15 00:51:45;;;;;;;1.50;0.60;;;22.60;43.40;;;;;;4994005;28;20427;-63
2021/10/15 00:54:13;;;;;;;1.73;0.70;;;22.50;43.50;;;;;;4993834;28;20382;-61
2021/10/15 00:56:41;;;;;;;1.33;0.50;;;22.50;43.40;;;;;;4994017;28;20418;-60
2021/10/15 00:59:06;;;;;;;1.23;0.60;;;22.50;43.30;;;;;;4993146;28;20466;-60
2021/10/15 01:01:32;;;;;;;0.82;0.50;;;22.50;43.30;;;;;;4993434;28;20402;-59
2021/10/15 01:04:02;;;;;;;0.97;0.60;;;22.50;43.40;;;;;;4993286;28;20422;-65
2021/10/15 01:06:29;;;;;;;1.25;0.70;;;22.50;43.30;;;;;;4993668;28;20402;-63
2021/10/15 01:08:55;;;;;;;0.98;0.50;;;22.50;43.40;;;;;;4993622;28;20402;-60
2021/10/15 01:11:21;;;;;;;1.10;0.55;;;22.50;43.20;;;;;;4975272;28;20430;-62
2021/10/15 01:13:48;;;;;;;0.90;0.60;;;22.50;43.30;;;;;;4975785;28;20394;-60
2021/10/15 01:16:14;;;;;;;1.40;0.70;;;22.50;43.30;;;;;;4993248;28;20790;-60
2021/10/15 01:18:41;;;;;;;1.10;0.50;;;22.50;43.30;;;;;;4993388;28;20383;-60
2021/10/15 01:21:09;;;;;;;1.00;0.57;;;22.50;43.40;;;;;;4975918;28;20395;-60
2021/10/15 01:23:36;;;;;;;1.10;0.60;;;22.50;43.30;;;;;;4993362;28;20441;-60
2021/10/15 01:26:01;;;;;;;0.77;0.60;;;22.50;43.40;;;;;;4992740;28;20755;-60
2021/10/15 01:28:29;;;;;;;0.85;0.60;;;22.50;43.30;;;;;;4993298;28;20403;-60
2021/10/15 01:30:55;;;;;;;0.90;0.57;;;22.50;43.30;;;;;;4992808;28;20476;-61
2021/10/15 01:33:21;;;;;;;0.80;0.60;;;22.50;43.30;;;;;;4992550;28;20390;-61
2021/10/15 01:35:46;;;;;;;1.03;0.57;;;22.50;43.20;;;;;;4992922;28;20483;-65
2021/10/15 01:38:13;;;;;;;1.10;0.55;;;22.50;43.30;;;;;;4992608;28;20489;-60
2021/10/15 01:40:39;;;;;;;0.98;0.60;;;22.50;43.30;;;;;;4993103;28;20401;-62
2021/10/15 01:43:05;;;;;;;0.90;0.50;;;22.50;43.20;;;;;;4992670;28;20383;-61
2021/10/15 01:45:32;;;;;;;1.13;0.52;;;22.50;43.30;;;;;;4992764;28;20486;-60
2021/10/15 01:47:59;;;;;;;1.23;0.70;;;22.50;43.30;;;;;;4992476;28;20929;-62
2021/10/15 01:50:26;;;;;;;1.25;0.70;;;22.50;43.10;;;;;;4992804;28;21114;-60
2021/10/15 01:52:53;;;;;;;1.20;0.50;;;22.50;43.20;;;;;;4992832;28;20403;-61
2021/10/15 01:55:20;;;;;;;0.90;0.50;;;22.50;43.30;;;;;;4992751;28;20389;-59
2021/10/15 01:57:46;;;;;;;1.23;0.50;;;22.50;43.30;;;;;;4992788;28;20654;-60
2021/10/15 02:00:14;;;;;;;1.05;0.70;;;22.50;43.20;;;;;;4992400;28;20390;-60
2021/10/15 02:02:40;;;;;;;1.00;0.50;;;22.50;43.30;;;;;;4992699;28;20479;-60
2021/10/15 02:05:08;;;;;;;1.60;0.60;;;22.50;43.10;;;;;;4992588;28;20865;-60
2021/10/15 02:07:34;;;;;;;1.35;0.50;;;22.50;43.10;;;;;;4991932;28;20406;-60
2021/10/15 02:10:00;;;;;;;1.27;0.53;;;22.50;43.20;;;;;;4991928;28;20410;-60
2021/10/15 02:12:25;;;;;;;1.05;0.50;;;22.50;43.30;;;;;;4992280;28;20434;-60
2021/10/15 02:14:51;;;;;;;0.90;0.53;;;22.50;43.20;;;;;;4992756;28;21010;-60
2021/10/15 02:17:18;;;;;;;1.50;0.65;;;22.50;43.10;;;;;;4992287;28;20926;-60
2021/10/15 02:19:44;;;;;;;1.48;0.50;;;22.50;43.10;;;;;;4992432;28;20398;-60
2021/10/15 02:22:09;;;;;;;0.77;0.50;;;22.50;43.10;;;;;;4991948;28;20390;-68
2021/10/15 02:24:36;;;;;;;1.02;0.50;;;22.50;43.00;;;;;;4992366;28;20398;-60
2021/10/15 02:27:02;;;;;;;1.20;0.60;;;22.50;43.10;;;;;;4992263;28;20775;-60
2021/10/15 02:29:28;;;;;;;1.40;0.60;;;22.50;43.10;;;;;;4992419;28;20386;-60
2021/10/15 02:31:54;;;;;;;1.10;0.50;;;22.50;43.30;;;;;;4991728;28;20425;-60
2021/10/15 02:34:19;;;;;;;1.00;0.50;;;22.50;43.10;;;;;;4992253;28;20473;-62
2021/10/15 02:36:46;;;;;;;1.40;0.55;;;22.50;43.00;;;;;;4992238;28;20403;-61
2021/10/15 02:39:12;;;;;;;1.00;0.50;;;22.50;43.50;;;;;;4992171;28;20402;-60
2021/10/15 02:41:37;;;;;;;0.80;0.47;;;22.50;42.80;;;;;;4992213;28;20411;-60
2021/10/15 02:44:14;;;;;;;1.50;0.60;;;22.40;43.00;;;;;;4991419;28;20413;-60
2021/10/15 02:46:40;;;;;;;1.13;0.50;;;22.40;43.00;;;;;;4992167;28;20398;-60
2021/10/15 02:49:06;;;;;;;1.10;0.43;;;22.50;42.90;;;;;;4992002;28;20460;-59
2021/10/15 02:51:33;;;;;;;0.90;0.57;;;22.40;42.90;;;;;;4992003;28;20818;-59
2021/10/15 02:53:58;;;;;;;0.80;0.50;;;22.50;43.00;;;;;;4991576;28;20386;-59
2021/10/15 02:56:24;;;;;;;2.60;0.50;;;22.40;42.90;;;;;;4992015;28;20391;-59
2021/10/15 02:58:50;;;;;;;1.30;0.50;;;22.40;42.90;;;;;;4991935;28;20386;-59
2021/10/15 03:01:15;;;;;;;1.43;0.60;;;22.40;42.80;;;;;;4991654;28;20398;-60
2021/10/15 03:03:41;;;;;;;1.27;0.60;;;22.40;42.80;;;;;;4991711;28;20470;-59
2021/10/15 03:06:07;;;;;;;2.97;0.63;;;22.40;43.00;;;;;;4990860;28;20805;-60
2021/10/15 03:08:33;;;;;;;2.10;0.57;;;22.40;43.00;;;;;;4991821;28;20750;-60
2021/10/15 03:10:59;;;;;;;1.88;0.70;;;22.50;43.00;;;;;;4974368;28;20926;-60
2021/10/15 03:13:25;;;;;;;4.70;0.70;;;22.50;43.10;;;;;;4991810;28;20409;-60
2021/10/15 03:15:50;;;;;;;3.00;0.73;;;22.50;43.10;;;;;;4991360;28;20402;-60
2021/10/15 03:18:17;;;;;;;7.93;0.77;;;22.60;42.90;;;;;;4990715;28;20386;-66
2021/10/15 03:20:43;;;;;;;7.70;0.95;;;22.60;43.30;;;;;;4973093;28;20395;-65
2021/10/15 03:23:10;;;;;;;12.23;0.98;;;22.70;43.90;;;;;;4991875;28;20395;-63
2021/10/15 03:25:35;;;;;;;6.47;0.93;;;22.80;43.70;;;;;;4994614;28;20457;-60
2021/10/15 03:28:01;;;;;;;5.03;0.70;;;22.70;44.20;;;;;;4994102;28;20398;-60
2021/10/15 03:30:27;;;;;;;6.28;0.75;;;22.80;44.40;;;;;;4994503;28;20425;-60
2021/10/15 03:32:52;;;;;;;6.75;1.02;;;22.80;44.20;;;;;;4994666;28;20401;-61
2021/10/15 03:35:18;;;;;;;9.48;1.00;;;22.80;44.20;;;;;;4994228;28;20394;-62
2021/10/15 03:37:44;;;;;;;4.95;0.70;;;22.80;44.30;;;;;;4994189;28;20953;-60
2021/10/15 03:40:11;;;;;;;3.47;0.68;;;22.90;44.20;;;;;;4993993;28;20399;-61
2021/10/15 03:42:37;;;;;;;4.18;0.50;;;22.90;44.10;;;;;;4994605;28;20541;-59
2021/10/15 03:45:05;;;;;;;4.35;0.90;;;22.90;44.20;;;;;;4994254;28;20458;-59
2021/10/15 03:47:32;;;;;;;3.53;0.70;;;22.90;44.10;;;;;;4976668;28;20402;-60
2021/10/15 03:49:57;;;;;;;8.38;3.67;;;23.00;44.20;;;;;;4994296;28;20406;-60
2021/10/15 03:52:23;;;;;;;10.10;4.93;;;23.00;44.00;;;;;;4994731;28;20408;-60
2021/10/15 03:54:49;;;;;;;4.82;1.45;;;23.10;44.40;;;;;;4977048;28;20391;-60
2021/10/15 03:57:14;;;;;;;5.87;1.70;;;23.00;44.40;;;;;;4977196;28;20417;-61
2021/10/15 03:59:40;;;;;;;4.60;1.40;;;23.00;44.30;;;;;;4994838;28;20390;-60
2021/10/15 04:02:06;;;;;;;4.28;1.30;;;23.00;44.10;;;;;;4994358;28;20387;-60
2021/10/15 04:04:31;;;;;;;4.23;1.43;;;23.00;43.90;;;;;;4994615;28;20486;-60
2021/10/15 04:06:57;;;;;;;3.97;1.13;;;23.00;44.10;;;;;;4994640;28;20782;-60
2021/10/15 04:09:22;;;;;;;5.43;1.13;;;22.90;44.20;;;;;;4994587;28;20393;-60
2021/10/15 04:11:48;;;;;;;3.30;1.00;;;22.90;44.90;;;;;;4994368;28;20789;-60
2021/10/15 04:14:14;;;;;;;4.07;1.00;;;22.90;44.20;;;;;;4994083;28;20445;-60
2021/10/15 04:16:40;;;;;;;3.40;1.00;;;22.90;45.00;;;;;;4994344;28;20398;-60
2021/10/15 04:19:05;;;;;;;2.33;0.93;;;22.80;44.30;;;;;;4994529;28;20487;-60
2021/10/15 04:21:31;;;;;;;4.32;0.95;;;22.80;44.20;;;;;;4994468;28;20398;-60
2021/10/15 04:23:57;;;;;;;4.63;0.97;;;22.80;44.10;;;;;;4993995;28;20386;-60
2021/10/15 04:26:23;;;;;;;3.55;1.00;;;22.80;44.00;;;;;;4994195;28;20875;-60
2021/10/15 04:28:48;;;;;;;3.55;0.85;;;22.80;43.90;;;;;;4994276;28;20386;-60
2021/10/15 04:31:16;;;;;;;2.63;1.00;;;22.80;43.80;;;;;;4982298;28;20502;-60
2021/10/15 04:33:41;;;;;;;2.05;1.00;;;22.80;43.60;;;;;;4974490;28;20403;-60
2021/10/15 04:36:07;;;;;;;1.55;0.90;;;22.80;43.50;;;;;;4974335;28;20471;-60
2021/10/15 04:38:33;;;;;;;2.58;0.80;;;22.70;43.30;;;;;;4974809;28;20396;-61
2021/10/15 04:40:58;;;;;;;2.70;0.82;;;22.70;43.30;;;;;;4974619;28;20400;-61
2021/10/15 04:43:24;;;;;;;2.20;0.80;;;22.80;43.30;;;;;;4974448;28;20400;-60
2021/10/15 04:45:49;;;;;;;2.80;0.80;;;22.70;43.20;;;;;;4967158;28;20422;-61
2021/10/15 04:48:15;;;;;;;2.90;0.88;;;22.70;43.20;;;;;;4954815;29;20398;-60
2021/10/15 04:50:41;;;;;;;3.00;1.10;;;22.70;43.10;;;;;;4955134;29;20436;-60
2021/10/15 04:53:08;;;;;;;2.05;0.80;;;22.70;43.10;;;;;;4954800;29;20398;-60
2021/10/15 04:55:35;;;;;;;1.88;0.60;;;22.70;43.10;;;;;;4955242;29;20487;-61
2021/10/15 04:58:01;;;;;;;2.15;0.80;;;22.70;43.00;;;;;;4954531;29;20405;-59
2021/10/15 05:00:28;;;;;;;2.25;0.70;;;22.70;43.00;;;;;;4954973;29;20870;-59
2021/10/15 05:02:54;;;;;;;3.03;0.80;;;22.70;42.90;;;;;;4954756;29;20394;-59
2021/10/15 05:05:23;;;;;;;2.35;1.00;;;22.70;43.00;;;;;;4954873;29;20751;-59
2021/10/15 05:07:49;;;;;;;1.77;0.90;;;22.70;43.10;;;;;;4954898;29;20437;-60
2021/10/15 05:10:16;;;;;;;1.95;0.80;;;22.60;43.30;;;;;;4936821;29;20898;-59
2021/10/15 05:12:42;;;;;;;2.60;1.05;;;22.70;43.40;;;;;;4954530;29;20493;-60
2021/10/15 05:15:11;;;;;;;3.75;0.75;;;22.70;43.20;;;;;;4954487;29;20425;-60
2021/10/15 05:17:38;;;;;;;6.60;1.10;;;22.80;43.20;;;;;;4954474;29;20402;-60
2021/10/15 05:20:05;;;;;;;5.28;1.10;;;22.80;43.90;;;;;;4954036;29;20397;-61
2021/10/15 05:22:31;;;;;;;5.63;0.88;;;22.80;44.20;;;;;;4954305;29;20397;-60
2021/10/15 05:24:57;;;;;;;4.80;0.83;;;22.70;44.20;;;;;;4954503;29;20891;-62
2021/10/15 05:27:23;;;;;;;6.95;0.90;;;22.70;44.20;;;;;;4954376;29;20472;-60
2021/10/15 05:29:48;;;;;;;4.28;0.80;;;22.70;44.20;;;;;;4954331;29;20390;-60
2021/10/15 05:32:15;;;;;;;3.10;0.90;;;22.70;44.10;;;;;;4953910;29;20426;-60
2021/10/15 05:34:42;;;;;;;4.18;1.00;;;22.70;44.00;;;;;;4954441;29;20394;-60
2021/10/15 05:37:07;;;;;;;4.22;0.82;;;22.70;44.00;;;;;;4954241;29;20405;-62
2021/10/15 05:39:34;;;;;;;3.08;0.75;;;22.70;44.10;;;;;;4954431;29;20378;-60
2021/10/15 05:41:59;;;;;;;7.97;0.80;;;22.60;43.70;;;;;;4954030;29;20397;-63
2021/10/15 05:44:25;;;;;;;3.57;0.70;;;22.60;43.80;;;;;;4953936;29;20586;-60
2021/10/15 05:46:51;;;;;;;3.53;0.70;;;22.70;43.90;;;;;;4954024;28;20382;-61
2021/10/15 05:49:17;;;;;;;2.30;1.00;;;22.70;43.70;;;;;;4936915;29;20889;-63
2021/10/15 05:51:46;;;;;;;3.03;0.80;;;22.70;43.70;;;;;;4954122;29;20964;-68
2021/10/15 05:54:17;;;;;;;3.03;0.68;;;22.60;43.40;;;;;;4953564;29;20394;-61
2021/10/15 05:57:01;;;;;;;2.03;0.63;;;22.60;43.40;;;;;;4954168;29;20890;-68
2021/10/15 05:59:26;;;;;;;1.80;0.60;;;22.60;43.30;;;;;;4954037;29;20394;-60
2021/10/15 06:01:56;;;;;;;2.77;0.80;;;22.60;43.30;;;;;;4954065;29;20398;-60
2021/10/15 06:15:28;;;;;;;2.22;0.60;;;22.60;43.20;;;;;;4954099;29;20448;-61
2021/10/15 06:17:55;;;;;;;1.38;0.60;;;22.60;43.20;;;;;;4953806;29;20483;-62
2021/10/15 06:20:21;;;;;;;2.45;0.70;;;22.60;43.00;;;;;;4953194;29;20457;-63
2021/10/15 06:22:46;;;;;;;1.50;0.60;;;22.60;43.10;;;;;;4953732;29;20406;-60
2021/10/15 06:25:12;;;;;;;2.03;0.60;;;22.50;42.90;;;;;;4953620;29;20433;-61
2021/10/15 06:27:38;;;;;;;1.80;0.70;;;22.50;43.00;;;;;;4953646;29;20497;-65
2021/10/15 06:30:04;;;;;;;1.73;0.60;;;22.50;42.90;;;;;;4953260;29;20402;-61
2021/10/15 06:32:30;;;;;;;1.40;0.50;;;22.50;42.80;;;;;;4953481;29;20409;-63
2021/10/15 06:34:55;;;;;;;1.40;0.50;;;22.50;42.80;;;;;;4953513;29;20402;-61
2021/10/15 06:37:21;;;;;;;2.33;1.00;;;22.50;42.80;;;;;;4953536;29;20418;-60
2021/10/15 06:39:47;;;;;;;0.95;0.50;;;22.50;42.90;;;;;;4953460;29;20477;-60
2021/10/15 06:42:13;;;;;;;2.63;0.50;;;22.50;42.80;;;;;;4952960;29;20394;-66
2021/10/15 06:44:39;;;;;;;1.20;0.43;;;22.50;42.80;;;;;;4953341;29;20417;-64
2021/10/15 06:47:05;;;;;;;1.40;0.60;;;22.50;42.70;;;;;;4953663;29;20469;-61
2021/10/15 06:49:31;;;;;;;1.60;0.50;;;22.50;43.20;;;;;;4953432;29;20416;-60
2021/10/15 06:51:57;;;;;;;1.33;0.50;;;22.50;42.60;;;;;;4953320;29;20909;-64
2021/10/15 06:54:22;;;;;;;0.95;0.52;;;22.50;42.60;;;;;;4935868;29;20397;-61
2021/10/15 06:56:48;;;;;;;1.30;0.60;;;22.50;42.60;;;;;;4953393;28;20506;-61
2021/10/15 06:59:14;;;;;;;0.93;0.50;;;22.50;42.80;;;;;;4956273;29;20386;-60
2021/10/15 07:01:39;;;;;;;1.10;0.60;;;22.50;42.90;;;;;;4957374;29;20390;-61
2021/10/15 07:04:05;;;;;;;1.40;0.60;;;22.50;42.80;;;;;;4956958;29;20894;-63
2021/10/15 07:06:31;;;;;;;1.10;0.60;;;22.50;42.80;;;;;;4956988;29;20862;-60
2021/10/15 07:08:57;;;;;;;1.20;0.60;;;22.50;42.80;;;;;;4957145;29;20812;-61
2021/10/15 07:11:23;;;;;;;0.98;0.57;;;22.50;42.70;;;;;;4957083;29;20425;-61
2021/10/15 07:13:48;;;;;;;1.10;0.50;;;22.50;42.60;;;;;;4957055;29;20449;-65
2021/10/15 07:16:14;;;;;;;0.98;0.60;;;22.50;42.80;;;;;;4956532;29;20433;-63
2021/10/15 07:18:42;;;;;;;1.07;0.50;;;22.50;42.70;;;;;;4957135;29;20477;-62
2021/10/15 07:21:09;;;;;;;1.00;0.60;;;22.50;42.60;;;;;;4956866;29;20402;-60
2021/10/15 07:23:35;;;;;;;1.33;0.50;;;22.50;42.70;;;;;;4956822;29;20408;-62
2021/10/15 07:26:02;;;;;;;1.23;0.70;;;22.50;42.50;;;;;;4939419;29;20980;-64
2021/10/15 07:28:27;;;;;;;0.90;0.60;;;22.50;42.50;;;;;;4956351;29;20390;-62
2021/10/15 07:30:54;;;;;;;0.95;0.57;;;22.60;42.50;;;;;;4956693;29;20437;-60
2021/10/15 07:33:21;;;;;;;1.15;0.70;;;22.60;42.50;;;;;;4956697;29;20430;-64
2021/10/15 07:35:46;;;;;;;0.90;0.40;;;22.60;42.50;;;;;;4956676;29;20385;-63
2021/10/15 07:38:12;;;;;;;1.48;0.70;;;22.60;42.50;;;;;;4956084;29;20413;-63
2021/10/15 07:40:38;;;;;;;0.80;0.57;;;22.60;42.50;;;;;;4956647;29;20390;-65
2021/10/15 07:43:04;;;;;;;0.98;0.60;;;22.70;42.60;;;;;;4956461;29;20489;-69
2021/10/15 07:45:29;;;;;;;1.20;0.70;;;22.70;42.40;;;;;;4956206;29;20775;-69
2021/10/15 07:47:55;;;;;;;2.20;0.70;;;22.70;42.60;;;;;;4956447;29;20405;-68
2021/10/15 07:50:22;;;;;;;2.20;0.70;;;22.70;41.90;;;;;;4955988;29;20916;-68
2021/10/15 07:52:47;;;;;;;1.75;0.70;;;22.70;41.60;;;;;;4956388;29;20477;-68
2021/10/15 07:55:13;;;;;;;1.15;0.65;;;22.70;41.20;;;;;;4956274;29;20485;-67
2021/10/15 07:57:39;;;;;;;2.47;0.77;;;22.70;41.10;;;;;;4956376;29;20397;-66
2021/10/15 08:00:08;;;;;;;3.50;0.70;;;22.60;40.60;;;;;;4956079;29;20405;-61
2021/10/15 08:02:33;;;;;;;1.80;0.70;;;22.60;40.40;;;;;;4938838;29;20398;-69
2021/10/15 08:04:59;;;;;;;1.90;0.80;;;22.60;40.20;;;;;;4956130;29;20878;-69
2021/10/15 08:07:25;;;;;;;2.37;0.80;;;22.60;40.20;;;;;;4956141;29;20395;-69
2021/10/15 08:09:50;;;;;;;1.80;0.80;;;22.60;39.80;;;;;;4955606;28;20402;-68
2021/10/15 08:12:16;;;;;;;2.10;1.00;;;22.60;39.70;;;;;;4955224;29;20413;-62
2021/10/15 08:14:42;;;;;;;2.60;0.70;;;22.60;39.70;;;;;;4955979;29;20405;-60
2021/10/15 08:17:07;;;;;;;2.00;0.77;;;22.60;39.50;;;;;;4955878;29;20405;-61
2021/10/15 08:19:33;;;;;;;4.05;0.90;;;22.60;40.10;;;;;;4955839;29;20489;-60
2021/10/15 08:21:59;;;;;;;1.60;0.80;;;22.60;39.70;;;;;;4955772;29;20406;-61
2021/10/15 08:24:25;;;;;;;2.45;0.80;;;22.60;40.00;;;;;;4938188;29;20417;-61
2021/10/15 08:26:51;;;;;;;3.20;0.70;;;22.60;40.50;;;;;;4955645;29;20442;-60
2021/10/15 08:29:18;;;;;;;4.30;0.80;;;22.60;40.60;;;;;;4955610;29;20568;-60
2021/10/15 08:31:43;;;;;;;2.83;0.80;;;22.70;40.90;;;;;;4955519;29;20422;-60
2021/10/15 08:34:10;;;;;;;3.53;0.60;;;22.70;41.30;;;;;;4955255;29;20402;-61
2021/10/15 08:36:38;;;;;;;3.17;1.00;;;22.80;41.40;;;;;;4955544;29;20406;-60
2021/10/15 08:39:05;;;;;;;2.13;0.60;;;22.80;41.40;;;;;;4938072;29;20398;-60
2021/10/15 08:41:31;;;;;;;1.95;0.60;;;22.80;41.50;;;;;;4955467;29;20409;-60
2021/10/15 08:43:58;;;;;;;2.50;0.60;;;22.80;41.60;;;;;;4955098;29;20406;-60
2021/10/15 08:46:24;;;;;;;2.22;0.70;;;22.80;41.50;;;;;;4954918;29;20406;-60
2021/10/15 08:48:51;;;;;;;1.65;0.73;;;22.80;41.60;;;;;;4938061;29;20398;-60
2021/10/15 08:51:18;;;;;;;2.05;0.70;;;22.90;41.80;;;;;;4955112;29;20417;-60
2021/10/15 08:53:45;;;;;;;1.05;0.50;;;22.90;41.90;;;;;;4963246;28;20398;-60
2021/10/15 08:56:11;;;;;;;1.35;0.70;;;22.90;41.90;;;;;;4979992;28;20408;-63
2021/10/15 08:58:45;;;;;;;1.67;0.70;;;22.90;42.00;;;;;;4983558;28;20398;-63
2021/10/15 09:01:11;;;;;;;1.38;0.65;;;22.90;41.90;;;;;;4980046;28;20396;-63
2021/10/15 09:03:36;;;;;;;3.00;0.70;;;22.90;42.00;;;;;;4983712;28;20886;-61
2021/10/15 09:06:05;;;;;;;3.67;1.20;;;22.90;42.70;;;;;;4984145;28;20415;-62
2021/10/15 09:08:53;;;;;;;2.58;0.90;;;22.90;42.20;;;;;;4978880;28;20392;-61
2021/10/15 09:11:39;;;;;;;3.20;0.90;;;23.00;42.10;;;;;;4974036;28;20904;-61
2021/10/15 09:14:18;;;;;;;2.58;0.65;;;23.00;42.10;;;;;;4973824;28;20455;-60
2021/10/15 09:17:09;;;;;;;5.93;1.15;;;23.00;42.70;;;;;;4974267;28;20403;-60
2021/10/15 09:19:41;;;;;;;6.80;1.00;;;23.00;42.70;;;;;;4974265;28;20439;-61
2021/10/15 09:22:14;;;;;;;4.85;0.60;;;23.10;42.80;;;;;;4973453;28;20400;-65
2021/10/15 09:24:48;;;;;;;3.90;0.80;;;23.10;42.80;;;;;;4973975;28;20853;-60
2021/10/15 09:27:18;;;;;;;3.93;0.90;;;23.10;42.60;;;;;;4973914;28;20511;-59
2021/10/15 09:29:46;;;;;;;3.20;0.75;;;23.10;42.50;;;;;;4973885;28;20399;-59
2021/10/15 09:32:13;;;;;;;3.80;0.60;;;23.10;42.60;;;;;;4973414;28;20424;-61
2021/10/15 09:34:39;;;;;;;3.40;0.75;;;23.10;42.60;;;;;;4973825;28;20462;-61
2021/10/15 09:37:34;;;;;;;3.25;0.52;;;23.10;42.40;;;;;;4973729;28;20483;-61
2021/10/15 09:40:18;;;;;;;2.95;0.50;;;23.10;42.40;;;;;;4971996;28;20392;-60
2021/10/15 09:42:50;;;;;;;2.72;0.60;;;23.10;42.30;;;;;;4973620;28;20411;-60
2021/10/15 09:45:23;;;;;;;3.85;0.70;;;23.10;42.30;;;;;;4973386;28;20491;-60
2021/10/15 09:48:01;;;;;;;3.55;0.60;;;23.10;42.30;;;;;;4973579;28;20471;-60
2021/10/15 09:50:27;;;;;;;3.17;0.65;;;23.10;42.40;;;;;;4973188;28;20753;-60
2021/10/15 09:52:58;;;;;;;4.50;0.90;;;23.10;42.50;;;;;;4973172;28;20432;-62
2021/10/15 09:55:39;;;;;;;4.65;0.82;;;23.10;42.50;;;;;;4973419;28;20385;-60
2021/10/15 09:58:17;;;;;;;2.72;0.80;;;23.10;42.60;;;;;;4973277;28;20392;-61
2021/10/15 10:00:43;;;;;;;4.60;0.75;;;23.10;42.50;;;;;;4973349;28;20877;-60
2021/10/15 10:03:09;;;;;;;4.40;0.70;;;23.20;42.50;;;;;;4973283;28;20481;-60
2021/10/15 10:05:35;;;;;;;2.95;0.60;;;23.10;42.60;;;;;;4973312;28;20391;-61
2021/10/15 10:08:01;;;;;;;3.17;0.90;;;23.10;42.50;;;;;;4973161;28;20402;-60
2021/10/15 10:10:30;;;;;;;4.30;0.70;;;23.20;42.50;;;;;;4955259;28;20507;-60
2021/10/15 10:12:57;;;;;;;4.78;0.80;;;23.20;42.50;;;;;;4972837;28;20396;-60
2021/10/15 10:15:25;;;;;;;4.15;0.88;;;23.10;43.10;;;;;;4973082;28;20388;-60
2021/10/15 10:18:28;;;;;;;5.70;0.85;;;23.10;43.00;;;;;;4973029;28;20396;-59
2021/10/15 10:21:07;;;;;;;5.82;1.00;;;23.00;42.80;;;;;;4973128;28;20487;-60
2021/10/15 10:23:44;;;;;;;5.22;1.00;;;23.10;43.00;;;;;;4972715;28;20737;-60
2021/10/15 10:26:12;;;;;;;2.65;0.80;;;23.10;42.80;;;;;;4955535;28;20400;-60
2021/10/15 10:28:39;;;;;;;4.82;0.90;;;23.10;42.60;;;;;;4972578;28;20396;-60
2021/10/15 10:31:20;;;;;;;4.72;0.88;;;23.10;42.80;;;;;;4972656;28;20441;-60
2021/10/15 10:33:54;;;;;;;3.55;0.85;;;23.10;42.80;;;;;;4955483;28;20400;-60
2021/10/15 10:36:19;;;;;;;4.20;1.10;;;23.10;43.10;;;;;;4972348;28;20491;-60
2021/10/15 10:38:45;;;;;;;6.20;0.95;;;23.20;43.40;;;;;;4955520;28;21027;-60
2021/10/15 10:41:26;;;;;;;5.60;0.90;;;23.20;42.80;;;;;;4955444;28;20408;-60
2021/10/15 10:43:52;;;;;;;4.75;1.00;;;23.20;42.70;;;;;;4972573;28;20408;-60
2021/10/15 10:46:26;;;;;;;4.53;0.75;;;23.30;42.60;;;;;;4972411;28;20403;-60
2021/10/15 10:48:52;;;;;;;4.35;0.80;;;23.20;42.30;;;;;;4972733;28;20475;-60
2021/10/15 10:51:28;;;;;;;3.58;0.75;;;23.30;42.20;;;;;;4972554;28;21043;-60
2021/10/15 10:53:57;;;;;;;4.47;0.90;;;23.30;41.80;;;;;;4972594;28;20932;-60
2021/10/15 10:56:38;;;;;;;3.63;0.80;;;23.40;41.80;;;;;;4972230;28;20396;-60
2021/10/15 10:59:22;;;;;;;2.97;0.60;;;23.40;41.60;;;;;;4972564;28;20395;-61
2021/10/15 11:02:01;;;;;;;1.92;0.80;;;23.40;41.60;;;;;;4972577;28;20396;-60
2021/10/15 11:04:38;;;;;;;2.47;0.70;;;23.40;41.60;;;;;;4972199;28;20441;-60
2021/10/15 11:07:03;;;;;;;2.20;0.50;;;23.40;41.60;;;;;;4972507;28;20435;-60
2021/10/15 11:09:35;;;;;;;1.95;0.70;;;23.40;41.40;;;;;;4972575;28;20423;-60
2021/10/15 11:12:01;;;;;;;2.13;0.70;;;23.50;41.40;;;;;;4972301;28;20916;-60
2021/10/15 11:14:50;;;;;;;4.20;0.70;;;23.50;41.40;;;;;;4972038;28;20455;-60
2021/10/15 11:17:16;;;;;;;2.83;0.80;;;23.50;41.50;;;;;;4972440;28;20395;-60
2021/10/15 11:19:42;;;;;;;2.05;0.50;;;23.50;41.30;;;;;;4972449;28;20447;-60
2021/10/15 11:22:08;;;;;;;4.97;0.68;;;23.50;41.30;;;;;;4955062;28;20404;-60
2021/10/15 11:24:33;;;;;;;2.58;0.80;;;23.60;41.30;;;;;;4971948;28;20392;-60
2021/10/15 11:26:59;;;;;;;1.50;0.60;;;23.60;41.10;;;;;;4972347;28;20429;-60
2021/10/15 11:29:25;;;;;;;1.08;0.70;;;23.60;41.10;;;;;;4954849;28;20431;-60
2021/10/15 11:31:56;;;;;;;2.13;0.60;;;23.60;41.10;;;;;;4972277;28;20512;-60
2021/10/15 11:34:22;;;;;;;1.77;0.50;;;23.60;41.00;;;;;;4971615;28;20964;-60
2021/10/15 11:36:59;;;;;;;1.00;0.50;;;23.60;41.00;;;;;;4972271;28;20462;-60
2021/10/15 11:39:25;;;;;;;1.20;0.65;;;23.70;41.10;;;;;;4954629;28;20403;-60
2021/10/15 11:41:51;;;;;;;1.67;0.60;;;23.70;41.20;;;;;;4972044;28;20403;-60
2021/10/15 11:44:34;;;;;;;1.33;0.53;;;23.70;41.00;;;;;;4973148;28;20416;-60
2021/10/15 11:47:00;;;;;;;1.77;0.68;;;23.70;41.30;;;;;;4975753;28;20396;-60
2021/10/15 11:49:34;;;;;;;2.10;0.70;;;23.70;41.10;;;;;;4975837;28;20384;-60
2021/10/15 11:52:00;;;;;;;2.33;0.60;;;23.80;41.10;;;;;;4975591;28;20431;-60
2021/10/15 11:54:26;;;;;;;3.40;0.47;;;23.80;41.20;;;;;;4975005;28;20400;-60
2021/10/15 11:56:51;;;;;;;2.43;0.70;;;24.00;46.70;;;;;;4975456;28;20768;-61
2021/10/15 11:59:21;;;;;;;2.58;1.08;;;24.80;42.80;;;;;;4975452;28;20389;-60
2021/10/15 12:01:47;;;;;;;7.65;1.42;;;25.20;42.50;;;;;;4975494;28;20400;-60
2021/10/15 12:04:14;;;;;;;4.60;1.03;;;25.40;42.50;;;;;;4975285;28;20392;-61
2021/10/15 12:06:41;;;;;;;3.88;0.95;;;25.50;42.60;;;;;;4974940;28;20424;-60
2021/10/15 12:09:10;;;;;;;4.57;1.20;;;25.60;41.90;;;;;;4975195;28;20447;-61
2021/10/15 12:11:39;;;;;;;4.47;1.08;;;25.80;41.70;;;;;;4975117;28;20424;-60
2021/10/15 12:14:08;;;;;;;5.47;1.13;;;25.90;41.60;;;;;;4979965;28;20498;-61
2021/10/15 12:16:42;;;;;;;4.70;0.90;;;26.00;41.20;;;;;;4988764;28;20803;-62
2021/10/15 12:19:26;;;;;;;4.57;0.90;;;26.10;41.20;;;;;;4984864;28;20415;-61
2021/10/15 12:22:03;;;;;;;6.13;1.50;;;26.10;41.20;;;;;;4982418;28;20396;-61
2021/10/15 12:24:45;;;;;;;5.63;1.53;;;26.20;41.30;;;;;;4980772;28;20843;-61
2021/10/15 12:27:20;;;;;;;6.10;1.25;;;26.20;41.30;;;;;;4981504;28;20392;-60
2021/10/15 12:29:49;;;;;;;5.43;1.30;;;26.20;41.00;;;;;;4979457;28;20796;-61
2021/10/15 12:32:21;;;;;;;5.32;1.20;;;26.30;40.90;;;;;;4980828;28;20494;-61
2021/10/15 12:34:59;;;;;;;6.95;1.38;;;26.40;40.80;;;;;;4981947;28;20429;-61
2021/10/15 12:37:37;;;;;;;5.18;1.33;;;26.40;40.90;;;;;;4979470;28;20392;-66
2021/10/15 12:40:24;;;;;;;5.63;1.70;;;26.50;40.90;;;;;;4979255;28;20443;-61
2021/10/15 12:42:56;;;;;;;4.07;1.30;;;26.50;40.90;;;;;;4974828;28;20388;-61
2021/10/15 12:45:24;;;;;;;4.50;1.23;;;26.50;40.90;;;;;;4974182;28;20486;-61
2021/10/15 12:47:58;;;;;;;4.77;1.43;;;26.60;41.00;;;;;;4974578;28;20396;-61
2021/10/15 12:50:24;;;;;;;6.50;1.40;;;26.60;41.00;;;;;;4974648;28;20768;-60
2021/10/15 12:52:50;;;;;;;4.18;1.50;;;26.70;41.80;;;;;;4974596;28;20479;-62
2021/10/15 12:55:18;;;;;;;6.05;1.30;;;26.70;41.10;;;;;;4974568;28;20479;-60
2021/10/15 12:57:46;;;;;;;6.30;1.17;;;26.80;40.90;;;;;;4974528;28;20947;-61
2021/10/15 13:00:19;;;;;;;5.28;1.30;;;26.90;40.80;;;;;;4974337;28;20748;-61
2021/10/15 13:02:46;;;;;;;6.90;1.50;;;26.90;41.30;;;;;;4974009;28;20396;-61